Tidewater, Oregon
Current Conditions -  °F | °C
As of 11:15 AM on Monday 20 Oct 2014 (Local Time) from KONP Reporting Station
Haze Haze  
Wind Chill: 61°   Ceiling: Unl
Heat Index: 61°   Visibility: 5mi
Dew Point: 55°   Wind: 17mph
Humidity: 82%   Direction: 200°SSW
Pressure: 29.82"   Gusts: 29mph
Location:  44.41°N, 123.9°W
Report Text: KONP 201815Z AUTO 20015G25KT 5SM HZ SCT012 SCT030 SCT120 16/13 A2982 RMK AO2
Loading
Personal Weather Stations






























Interactive Weather Map
Tropical Storm Tracking
New forecast layout! Learn more

10-Day Weather Forecast

Advertisements
Track Severe Weather on mobile